Time;durP1;ratioP1;P1;durP2;ratioP2;P2;SDS_P1;SDS_P2;PMS_P1;PMS_P2;Temp;Humidity;BMP_temperature;BMP_pressure;BME280_temperature;BME280_humidity;BME280_pressure;Samples;Min_cycle;Max_cycle;Signal;HPM_P1;HPM_P2
2023/04/07 00:01:59;;;;;;;20.80;16.00;;;7.20;99.90;;;;;;5057917;28;20476;-66
2023/04/07 00:04:28;;;;;;;16.90;14.73;;;7.20;99.90;;;;;;5058803;28;20490;-65
2023/04/07 00:06:55;;;;;;;14.60;12.80;;;7.20;99.90;;;;;;5059646;28;20483;-66
2023/04/07 00:09:22;;;;;;;18.20;14.03;;;7.20;99.90;;;;;;5058801;28;20474;-66
2023/04/07 00:11:50;;;;;;;15.53;12.80;;;7.20;99.90;;;;;;5058598;28;20466;-66
2023/04/07 00:14:17;;;;;;;16.10;12.83;;;7.20;99.90;;;;;;5058449;28;20501;-66
2023/04/07 00:16:44;;;;;;;15.83;14.20;;;7.20;99.90;;;;;;5058629;28;20458;-66
2023/04/07 00:19:11;;;;;;;14.83;12.87;;;7.20;99.90;;;;;;5058151;28;20753;-66
2023/04/07 00:21:40;;;;;;;13.90;12.40;;;7.20;99.90;;;;;;5057948;28;20466;-66
2023/04/07 00:24:07;;;;;;;13.53;12.13;;;7.20;99.90;;;;;;5058024;28;20474;-66
2023/04/07 00:26:34;;;;;;;15.40;13.53;;;7.30;99.90;;;;;;5058213;28;20462;-65
2023/04/07 00:29:01;;;;;;;15.33;13.73;;;7.20;99.90;;;;;;5058736;28;20457;-65
2023/04/07 00:31:29;;;;;;;15.10;13.27;;;7.20;99.90;;;;;;5058103;28;20484;-65
2023/04/07 00:33:58;;;;;;;15.17;12.97;;;7.30;99.90;;;;;;5056909;28;20917;-65
2023/04/07 00:36:26;;;;;;;15.13;13.63;;;7.20;99.90;;;;;;5058348;28;20512;-65
2023/04/07 00:38:54;;;;;;;15.20;12.77;;;7.30;99.90;;;;;;5057727;28;20493;-66
2023/04/07 00:41:21;;;;;;;15.43;13.30;;;7.30;99.90;;;;;;5058362;28;20466;-65
2023/04/07 00:43:50;;;;;;;15.80;13.40;;;7.30;99.90;;;;;;5058448;28;20473;-64
2023/04/07 00:46:18;;;;;;;14.53;12.83;;;7.20;99.90;;;;;;5058318;28;20946;-65
2023/04/07 00:48:45;;;;;;;17.37;13.17;;;7.30;99.90;;;;;;5057437;28;20474;-64
2023/04/07 00:51:13;;;;;;;14.47;12.97;;;7.30;99.90;;;;;;5057726;28;20501;-65
2023/04/07 00:53:42;;;;;;;15.83;13.30;;;7.30;99.90;;;;;;5057808;28;20563;-65
2023/04/07 00:56:12;;;;;;;15.97;13.47;;;7.20;99.90;;;;;;5059100;28;20465;-66
2023/04/07 00:58:39;;;;;;;15.43;13.10;;;7.20;99.90;;;;;;5058459;28;20468;-65
2023/04/07 01:01:10;;;;;;;16.50;13.73;;;7.20;99.90;;;;;;5057298;28;20472;-66
2023/04/07 01:03:45;;;;;;;17.33;14.13;;;7.20;99.90;;;;;;5057654;28;20466;-66
2023/04/07 01:06:16;;;;;;;15.83;12.93;;;7.20;99.90;;;;;;5057388;28;20490;-66
2023/04/07 01:08:50;;;;;;;16.80;14.57;;;7.30;99.90;;;;;;5057805;28;20984;-65
2023/04/07 01:11:25;;;;;;;15.10;13.50;;;7.30;99.90;;;;;;5056961;28;20549;-65
2023/04/07 01:13:54;;;;;;;15.83;14.17;;;7.30;99.90;;;;;;5057917;28;20485;-65
2023/04/07 01:16:27;;;;;;;16.87;14.07;;;7.30;99.90;;;;;;5055935;28;20455;-64
2023/04/07 01:18:57;;;;;;;17.50;13.20;;;7.30;99.90;;;;;;5056512;28;20468;-63
2023/04/07 01:21:27;;;;;;;16.10;13.57;;;7.30;99.90;;;;;;5053580;28;20581;-63
2023/04/07 01:24:25;;;;;;;15.50;13.90;;;7.30;99.90;;;;;;5055750;28;20465;-64
2023/04/07 01:27:01;;;;;;;13.77;11.93;;;7.30;99.90;;;;;;5053459;28;20446;-64
2023/04/07 01:29:40;;;;;;;15.27;12.83;;;7.30;99.90;;;;;;5053692;28;20482;-64
2023/04/07 01:32:11;;;;;;;16.30;13.27;;;7.30;99.90;;;;;;5036017;28;20484;-64
2023/04/07 01:34:40;;;;;;;16.77;14.40;;;7.40;99.90;;;;;;5036565;28;20753;-63
2023/04/07 01:37:08;;;;;;;14.80;13.30;;;7.40;99.90;;;;;;5036729;28;20939;-64
2023/04/07 01:39:37;;;;;;;14.87;13.27;;;7.40;99.90;;;;;;5037184;28;20451;-63
2023/04/07 01:42:05;;;;;;;15.67;13.50;;;7.30;99.90;;;;;;5037265;28;20742;-64
2023/04/07 01:44:33;;;;;;;14.70;12.80;;;7.40;99.90;;;;;;5037640;28;20465;-65
2023/04/07 01:47:03;;;;;;;14.00;12.60;;;7.40;99.90;;;;;;5037534;28;20918;-66
2023/04/07 01:49:31;;;;;;;14.43;12.90;;;7.40;99.90;;;;;;5037471;28;20790;-67
2023/04/07 01:52:00;;;;;;;13.37;11.70;;;7.40;99.90;;;;;;5052371;28;20746;-67
2023/04/07 01:54:28;;;;;;;13.20;11.90;;;7.40;99.90;;;;;;5057801;28;20474;-67
2023/04/07 01:56:55;;;;;;;14.00;11.77;;;7.40;99.90;;;;;;5057775;28;20468;-67
2023/04/07 01:59:22;;;;;;;14.53;13.03;;;7.40;99.90;;;;;;5057202;28;20777;-67
2023/04/07 02:01:50;;;;;;;13.90;11.77;;;7.40;99.90;;;;;;5057183;28;20477;-66
2023/04/07 02:04:23;;;;;;;14.00;12.60;;;7.40;99.90;;;;;;5056545;28;20922;-66
2023/04/07 02:06:54;;;;;;;12.80;11.47;;;7.40;99.90;;;;;;5056632;28;20498;-66
2023/04/07 02:09:24;;;;;;;12.80;11.30;;;7.50;99.90;;;;;;5056504;28;20481;-66
2023/04/07 02:11:53;;;;;;;14.30;12.80;;;7.40;99.90;;;;;;5057407;28;20528;-66
2023/04/07 02:14:23;;;;;;;12.90;11.60;;;7.40;99.90;;;;;;5057115;28;20552;-66
2023/04/07 02:16:51;;;;;;;13.23;11.90;;;7.40;99.90;;;;;;5056945;28;20496;-66
2023/04/07 02:19:20;;;;;;;13.60;10.77;;;7.40;99.90;;;;;;5057160;28;20477;-66
2023/04/07 02:21:50;;;;;;;14.10;12.53;;;7.40;99.90;;;;;;5057039;28;20569;-66
2023/04/07 02:24:20;;;;;;;13.57;12.17;;;7.40;99.90;;;;;;5057021;28;20549;-66
2023/04/07 02:26:47;;;;;;;15.10;13.50;;;7.40;99.90;;;;;;5055852;28;20494;-66
2023/04/07 02:29:15;;;;;;;13.20;11.80;;;7.30;99.90;;;;;;5056515;28;20899;-66
2023/04/07 02:31:42;;;;;;;16.03;14.10;;;7.40;99.90;;;;;;5056040;28;20969;-66
2023/04/07 02:34:09;;;;;;;16.03;12.20;;;7.40;99.90;;;;;;5055498;28;20466;-66
2023/04/07 02:36:38;;;;;;;14.40;12.90;;;7.40;99.90;;;;;;5055689;28;20887;-65
2023/04/07 02:39:05;;;;;;;14.60;12.53;;;7.40;99.90;;;;;;5056166;28;20450;-64
2023/04/07 02:41:32;;;;;;;13.83;12.23;;;7.40;99.90;;;;;;5057331;28;20533;-63
2023/04/07 02:43:59;;;;;;;14.43;12.40;;;7.40;99.90;;;;;;5055911;28;20477;-63
2023/04/07 02:46:26;;;;;;;14.60;11.97;;;7.40;99.90;;;;;;5056760;28;20497;-63
2023/04/07 02:48:53;;;;;;;16.27;13.03;;;7.40;99.90;;;;;;5056418;28;20468;-63
2023/04/07 02:51:20;;;;;;;14.83;13.33;;;7.40;99.90;;;;;;5057204;28;20465;-63
2023/04/07 02:53:49;;;;;;;13.40;12.10;;;7.40;99.90;;;;;;5056517;28;20468;-63
2023/04/07 02:56:16;;;;;;;14.57;11.80;;;7.40;99.90;;;;;;5057382;28;20465;-62
2023/04/07 02:58:43;;;;;;;13.33;11.93;;;7.50;99.90;;;;;;5056571;28;20466;-62
2023/04/07 03:01:10;;;;;;;17.17;15.40;;;7.50;99.90;;;;;;5056273;28;20766;-63
2023/04/07 03:03:38;;;;;;;16.00;13.00;;;7.50;99.90;;;;;;5055662;28;20879;-63
2023/04/07 03:06:05;;;;;;;13.67;12.20;;;7.50;99.90;;;;;;5056148;28;20560;-63
2023/04/07 03:08:33;;;;;;;15.70;13.13;;;7.50;99.90;;;;;;5055243;28;20903;-64
2023/04/07 03:11:02;;;;;;;14.50;13.00;;;7.60;99.90;;;;;;5055102;28;20544;-64
2023/04/07 03:13:30;;;;;;;14.10;12.60;;;7.60;99.90;;;;;;5055470;28;20466;-64
2023/04/07 03:15:57;;;;;;;14.30;11.70;;;7.60;99.90;;;;;;5055689;28;20869;-63
2023/04/07 03:18:24;;;;;;;15.30;13.70;;;7.60;99.90;;;;;;5057186;28;20458;-63
2023/04/07 03:20:54;;;;;;;14.73;13.17;;;7.50;99.90;;;;;;5056181;28;20472;-63
2023/04/07 03:23:22;;;;;;;15.10;13.50;;;7.50;99.90;;;;;;5056395;28;20532;-63
2023/04/07 03:25:49;;;;;;;16.07;13.50;;;7.50;99.90;;;;;;5056093;28;20661;-63
2023/04/07 03:28:18;;;;;;;15.67;12.90;;;7.50;99.90;;;;;;5055547;28;20461;-62
2023/04/07 03:30:45;;;;;;;14.80;13.20;;;7.50;99.90;;;;;;5055518;28;20462;-63
2023/04/07 03:33:12;;;;;;;15.80;13.50;;;7.50;99.90;;;;;;5055686;28;20462;-62
2023/04/07 03:35:39;;;;;;;17.10;14.60;;;7.50;99.90;;;;;;5055162;28;20462;-63
2023/04/07 03:38:08;;;;;;;16.93;15.10;;;7.50;99.90;;;;;;5055449;28;20786;-63
2023/04/07 03:40:35;;;;;;;16.93;13.70;;;7.50;99.90;;;;;;5055791;28;20466;-62
2023/04/07 03:43:02;;;;;;;15.60;13.87;;;7.50;99.90;;;;;;5054149;28;20548;-63
2023/04/07 03:45:30;;;;;;;14.10;12.60;;;7.60;99.90;;;;;;5055210;28;20520;-63
2023/04/07 03:47:57;;;;;;;14.63;13.17;;;7.60;99.90;;;;;;5055310;28;20553;-63
2023/04/07 03:50:25;;;;;;;14.90;13.23;;;7.60;99.90;;;;;;5055734;28;20466;-63
2023/04/07 03:52:52;;;;;;;15.50;13.87;;;7.60;99.90;;;;;;5055245;28;20461;-63
2023/04/07 03:55:19;;;;;;;14.80;13.20;;;7.60;99.90;;;;;;5057724;28;20454;-63
2023/04/07 03:57:46;;;;;;;16.37;14.73;;;7.60;99.90;;;;;;5059122;28;20470;-63
2023/04/07 04:00:14;;;;;;;14.73;13.13;;;7.60;99.90;;;;;;5059235;28;20466;-62
2023/04/07 04:02:42;;;;;;;18.07;15.10;;;7.60;99.90;;;;;;5058662;28;20553;-63
2023/04/07 04:05:10;;;;;;;16.87;14.50;;;7.60;99.90;;;;;;5058450;28;20461;-63
2023/04/07 04:07:37;;;;;;;16.53;14.23;;;7.60;99.90;;;;;;5058394;28;20576;-63
2023/04/07 04:10:04;;;;;;;17.50;14.80;;;7.70;99.90;;;;;;5058745;28;20462;-62
2023/04/07 04:12:32;;;;;;;19.57;14.97;;;7.70;99.90;;;;;;5058291;28;20462;-62
2023/04/07 04:14:59;;;;;;;20.17;15.20;;;7.70;99.90;;;;;;5059057;28;21479;-62
2023/04/07 04:17:26;;;;;;;20.13;15.40;;;7.70;99.90;;;;;;5057765;28;20454;-63
2023/04/07 04:19:55;;;;;;;24.47;17.27;;;7.80;99.90;;;;;;5058778;28;20828;-62
2023/04/07 04:22:22;;;;;;;23.40;16.57;;;7.80;99.90;;;;;;5058323;28;20896;-63
2023/04/07 04:24:49;;;;;;;23.70;16.60;;;7.80;99.90;;;;;;5058002;28;20707;-63
2023/04/07 04:27:16;;;;;;;23.47;17.53;;;7.80;99.90;;;;;;5058213;28;20525;-62
2023/04/07 04:29:43;;;;;;;23.23;17.93;;;7.90;99.90;;;;;;5058553;28;20472;-63
2023/04/07 04:32:10;;;;;;;22.93;17.30;;;7.90;99.90;;;;;;5058320;28;20474;-63
2023/04/07 04:34:37;;;;;;;21.90;16.80;;;7.90;99.90;;;;;;5057964;28;20761;-63
2023/04/07 04:37:06;;;;;;;23.90;18.00;;;7.90;99.90;;;;;;5057983;28;20482;-63
2023/04/07 04:39:33;;;;;;;22.33;17.23;;;7.90;99.90;;;;;;5058068;28;20730;-63
2023/04/07 04:42:01;;;;;;;19.23;15.03;;;7.90;99.90;;;;;;5058236;28;20886;-62
2023/04/07 04:44:29;;;;;;;19.00;15.27;;;7.90;99.90;;;;;;5058129;28;20561;-63
2023/04/07 04:46:56;;;;;;;19.10;14.80;;;7.90;99.90;;;;;;5057157;28;20584;-63
2023/04/07 04:49:23;;;;;;;24.30;17.17;;;7.90;99.90;;;;;;5057124;28;20758;-63
2023/04/07 04:51:50;;;;;;;19.00;14.30;;;7.90;99.90;;;;;;5057296;28;20867;-63
2023/04/07 04:54:19;;;;;;;14.77;11.33;;;7.90;99.90;;;;;;5057775;28;20466;-63
2023/04/07 04:56:47;;;;;;;12.70;10.40;;;7.90;99.90;;;;;;5057417;28;20460;-63
2023/04/07 04:59:14;;;;;;;16.10;12.00;;;7.90;99.90;;;;;;5058058;28;20469;-63
2023/04/07 05:01:41;;;;;;;14.20;11.03;;;7.90;99.90;;;;;;5058507;28;20462;-63
2023/04/07 05:04:09;;;;;;;14.20;11.30;;;7.90;99.90;;;;;;5058209;28;20466;-64
2023/04/07 05:06:36;;;;;;;15.40;12.87;;;7.90;99.90;;;;;;5057140;28;20533;-64
2023/04/07 05:09:03;;;;;;;18.23;12.70;;;7.90;99.90;;;;;;5057509;28;20461;-63
2023/04/07 05:11:31;;;;;;;15.83;13.07;;;7.90;99.90;;;;;;5058063;28;20469;-62
2023/04/07 05:13:59;;;;;;;21.47;14.30;;;7.90;99.90;;;;;;5058680;28;20554;-63
2023/04/07 05:16:26;;;;;;;17.00;12.83;;;7.90;99.90;;;;;;5058485;28;20437;-63
2023/04/07 05:18:53;;;;;;;17.50;12.87;;;8.00;99.90;;;;;;5057790;28;20463;-63
2023/04/07 05:21:20;;;;;;;18.50;13.10;;;7.90;99.90;;;;;;5058165;28;20462;-63
2023/04/07 05:23:50;;;;;;;14.40;11.70;;;7.90;99.90;;;;;;5058083;28;20468;-63
2023/04/07 05:26:17;;;;;;;15.37;11.07;;;7.90;99.90;;;;;;5058128;28;20512;-63
2023/04/07 05:28:45;;;;;;;15.20;11.60;;;7.90;99.90;;;;;;5057757;28;20466;-63
2023/04/07 05:31:13;;;;;;;15.13;11.93;;;7.80;99.90;;;;;;5057037;28;20461;-63
2023/04/07 05:33:40;;;;;;;17.50;12.67;;;7.80;99.90;;;;;;5056835;28;20524;-64
2023/04/07 05:36:07;;;;;;;18.83;12.80;;;7.90;99.90;;;;;;5057207;28;20485;-64
2023/04/07 05:38:35;;;;;;;19.13;12.03;;;7.90;99.90;;;;;;5057026;28;20528;-64
2023/04/07 05:41:02;;;;;;;16.80;12.50;;;7.90;99.90;;;;;;5056897;28;20474;-63
2023/04/07 05:43:29;;;;;;;19.33;13.27;;;7.80;99.90;;;;;;5057133;28;20924;-64
2023/04/07 05:45:58;;;;;;;17.30;12.33;;;7.80;99.90;;;;;;5049724;28;20471;-64
2023/04/07 05:48:25;;;;;;;19.17;13.50;;;7.90;99.90;;;;;;5038241;28;20446;-65
2023/04/07 05:50:52;;;;;;;16.00;12.50;;;8.00;99.90;;;;;;5041115;28;20466;-65
2023/04/07 05:53:19;;;;;;;17.27;12.90;;;7.90;99.90;;;;;;5057392;28;20466;-65
2023/04/07 05:55:46;;;;;;;18.07;13.97;;;7.90;99.90;;;;;;5057793;28;20462;-66
2023/04/07 05:58:14;;;;;;;20.53;13.97;;;8.00;99.90;;;;;;5057754;28;20458;-66
2023/04/07 06:00:41;;;;;;;19.00;12.77;;;7.90;99.90;;;;;;5057316;28;20468;-65
2023/04/07 06:03:10;;;;;;;17.63;12.83;;;7.90;99.90;;;;;;5057644;28;20462;-66
2023/04/07 06:05:42;;;;;;;17.30;13.20;;;8.00;99.90;;;;;;5057393;28;20468;-66
2023/04/07 06:08:11;;;;;;;15.53;10.87;;;8.00;99.90;;;;;;5056430;28;20483;-66
2023/04/07 06:10:40;;;;;;;13.30;10.70;;;7.90;99.90;;;;;;5057294;28;20462;-66
2023/04/07 06:13:07;;;;;;;14.40;10.90;;;7.90;99.90;;;;;;5057551;28;20467;-66
2023/04/07 06:15:35;;;;;;;13.40;10.00;;;7.90;99.90;;;;;;5057344;28;20539;-65
2023/04/07 06:18:02;;;;;;;12.97;9.37;;;7.90;99.90;;;;;;5057518;28;20469;-64
2023/04/07 06:20:31;;;;;;;12.60;9.63;;;7.90;99.90;;;;;;5056269;28;20561;-64
2023/04/07 06:22:58;;;;;;;12.60;8.90;;;7.80;99.90;;;;;;5056154;28;20899;-64
2023/04/07 06:25:25;;;;;;;11.60;9.30;;;7.90;99.90;;;;;;5056914;28;20957;-65
2023/04/07 06:27:53;;;;;;;13.70;9.70;;;7.90;99.90;;;;;;5057538;28;20518;-65
2023/04/07 06:30:20;;;;;;;12.03;8.97;;;7.80;99.90;;;;;;5057650;28;20763;-66
2023/04/07 06:32:47;;;;;;;13.13;9.20;;;7.80;99.90;;;;;;5057627;28;20462;-65
2023/04/07 06:35:15;;;;;;;14.10;10.13;;;7.80;99.90;;;;;;5057079;28;20477;-64
2023/04/07 06:37:43;;;;;;;15.67;10.53;;;7.80;99.90;;;;;;5057152;28;20490;-63
2023/04/07 06:40:10;;;;;;;11.83;9.40;;;7.90;99.90;;;;;;5057540;28;20459;-63
2023/04/07 06:42:37;;;;;;;13.10;9.73;;;8.00;99.90;;;;;;5057396;28;20458;-63
2023/04/07 06:45:06;;;;;;;12.93;9.33;;;7.90;99.90;;;;;;5056922;28;20894;-64
2023/04/07 06:47:33;;;;;;;11.50;9.07;;;7.90;99.90;;;;;;5056347;28;20494;-64
2023/04/07 06:50:00;;;;;;;10.20;8.77;;;7.90;99.90;;;;;;5056897;28;20467;-65
2023/04/07 06:52:27;;;;;;;12.67;9.23;;;7.70;99.90;;;;;;5056511;28;20520;-66
2023/04/07 06:54:56;;;;;;;10.33;9.03;;;7.80;99.90;;;;;;5056773;28;20933;-66
2023/04/07 06:57:23;;;;;;;10.60;8.33;;;8.00;99.90;;;;;;5055287;28;20457;-67
2023/04/07 06:59:50;;;;;;;9.37;8.10;;;8.00;99.90;;;;;;5056714;28;20925;-68
2023/04/07 07:02:17;;;;;;;9.23;8.07;;;7.90;99.90;;;;;;5055362;28;20466;-69
2023/04/07 07:04:44;;;;;;;12.20;8.30;;;7.90;99.90;;;;;;5056453;28;20501;-69
2023/04/07 07:07:12;;;;;;;10.30;8.80;;;8.00;99.90;;;;;;5055709;28;20494;-68
2023/04/07 07:09:39;;;;;;;10.37;8.37;;;8.10;99.90;;;;;;5036248;28;20464;-67
2023/04/07 07:12:08;;;;;;;10.43;8.63;;;8.00;99.90;;;;;;5055831;28;20901;-68
2023/04/07 07:14:35;;;;;;;13.03;9.37;;;8.20;99.90;;;;;;5056866;28;20466;-68
2023/04/07 07:17:02;;;;;;;10.90;8.47;;;8.20;99.90;;;;;;5057035;28;20493;-67
2023/04/07 07:19:29;;;;;;;11.03;9.07;;;8.10;99.90;;;;;;5056856;28;20482;-67
2023/04/07 07:21:56;;;;;;;15.53;9.93;;;8.00;99.90;;;;;;5056756;28;20942;-66
2023/04/07 07:24:28;;;;;;;10.63;8.60;;;8.00;99.90;;;;;;5056773;28;20455;-67
2023/04/07 07:26:55;;;;;;;13.40;9.83;;;7.90;99.90;;;;;;5057189;28;20547;-67
2023/04/07 07:29:24;;;;;;;12.53;9.90;;;8.00;99.90;;;;;;5057959;28;20473;-67
2023/04/07 07:31:51;;;;;;;10.70;9.00;;;8.00;99.90;;;;;;5059918;28;20907;-67
2023/04/07 07:34:18;;;;;;;11.93;9.23;;;8.10;99.90;;;;;;5059433;28;20458;-68
2023/04/07 07:36:46;;;;;;;11.50;9.33;;;8.10;99.90;;;;;;5071760;28;20457;-68
2023/04/07 07:39:14;;;;;;;12.90;9.90;;;8.10;99.90;;;;;;5078860;28;20465;-68
2023/04/07 07:41:41;;;;;;;12.07;9.53;;;8.00;99.90;;;;;;5066784;28;20458;-68
2023/04/07 07:44:10;;;;;;;14.20;9.67;;;8.10;99.90;;;;;;5060242;28;20465;-68
2023/04/07 07:46:38;;;;;;;12.37;9.57;;;8.10;99.90;;;;;;5060682;28;20458;-68
2023/04/07 07:49:05;;;;;;;14.77;9.17;;;8.20;99.90;;;;;;5059619;28;20472;-68
2023/04/07 07:51:33;;;;;;;13.67;10.17;;;8.10;99.90;;;;;;5059636;28;20462;-68
2023/04/07 07:54:02;;;;;;;13.33;10.63;;;8.10;99.90;;;;;;5058913;28;20466;-68
2023/04/07 07:56:29;;;;;;;12.23;9.30;;;8.40;99.90;;;;;;5057270;28;20462;-67
2023/04/07 07:58:56;;;;;;;13.53;9.50;;;8.30;99.90;;;;;;5057754;28;20460;-67
2023/04/07 08:01:23;;;;;;;13.13;10.07;;;8.20;99.90;;;;;;5057472;28;20466;-67
2023/04/07 08:03:52;;;;;;;14.47;9.50;;;8.10;99.90;;;;;;5055267;28;20474;-67
2023/04/07 08:06:20;;;;;;;12.23;9.10;;;8.20;99.90;;;;;;5057511;28;20635;-67
2023/04/07 08:08:47;;;;;;;12.30;9.60;;;8.10;99.90;;;;;;5057355;28;20547;-67
2023/04/07 08:11:15;;;;;;;11.23;8.03;;;8.10;99.90;;;;;;5055994;28;20556;-67
2023/04/07 08:13:45;;;;;;;13.67;10.13;;;8.00;99.90;;;;;;5055690;28;20634;-67
2023/04/07 08:16:12;;;;;;;14.00;8.93;;;8.00;99.90;;;;;;5056506;28;20745;-67
2023/04/07 08:18:39;;;;;;;13.63;10.57;;;8.10;99.90;;;;;;5057546;28;20457;-67
2023/04/07 08:21:08;;;;;;;14.93;9.67;;;8.20;99.90;;;;;;5056533;28;20470;-67
2023/04/07 08:23:35;;;;;;;15.97;8.90;;;8.30;99.90;;;;;;5057820;28;20462;-67
2023/04/07 08:26:02;;;;;;;14.20;10.00;;;8.20;99.90;;;;;;5058284;28;20458;-67
2023/04/07 08:28:29;;;;;;;11.53;9.30;;;8.30;99.90;;;;;;5058784;28;20501;-68
2023/04/07 08:30:56;;;;;;;14.80;10.03;;;8.30;99.90;;;;;;5059764;28;20469;-68
2023/04/07 08:33:23;;;;;;;13.33;9.87;;;8.40;99.90;;;;;;5059734;28;20458;-68
2023/04/07 08:35:51;;;;;;;12.37;9.50;;;8.40;99.90;;;;;;5058733;28;20458;-68
2023/04/07 08:38:19;;;;;;;11.73;8.67;;;8.40;99.90;;;;;;5059269;28;20461;-67
2023/04/07 08:40:48;;;;;;;11.57;9.33;;;8.40;99.90;;;;;;5058077;28;20458;-68
2023/04/07 08:43:18;;;;;;;14.00;9.80;;;8.40;99.90;;;;;;5042770;28;20467;-68
2023/04/07 08:45:47;;;;;;;14.57;8.30;;;8.40;99.90;;;;;;5055511;28;20502;-67
2023/04/07 08:48:17;;;;;;;13.93;9.37;;;8.40;99.90;;;;;;5057589;28;20524;-67
2023/04/07 08:50:51;;;;;;;13.20;9.73;;;8.50;99.90;;;;;;5043324;28;20467;-68
2023/04/07 08:53:24;;;;;;;10.97;7.83;;;8.40;99.90;;;;;;5052118;28;20462;-67
2023/04/07 08:55:52;;;;;;;11.90;9.20;;;8.50;99.90;;;;;;5047735;28;20506;-67
2023/04/07 08:58:19;;;;;;;13.10;9.90;;;8.50;99.90;;;;;;5057208;28;20458;-67
2023/04/07 09:00:48;;;;;;;12.87;9.40;;;8.50;99.90;;;;;;5058705;28;20462;-67
2023/04/07 09:03:16;;;;;;;11.80;9.70;;;8.60;99.90;;;;;;5057331;28;20496;-67
2023/04/07 09:05:45;;;;;;;13.50;10.10;;;8.60;99.90;;;;;;5057507;28;20459;-67
2023/04/07 09:08:12;;;;;;;14.77;10.30;;;8.50;99.90;;;;;;5053916;28;20525;-67
2023/04/07 09:10:41;;;;;;;11.43;9.37;;;8.60;99.90;;;;;;5056922;28;20615;-67
2023/04/07 09:13:08;;;;;;;13.83;10.93;;;8.40;99.90;;;;;;5056355;28;20468;-67
2023/04/07 09:15:36;;;;;;;14.73;10.93;;;8.60;99.90;;;;;;5056920;28;20749;-67
2023/04/07 09:18:04;;;;;;;17.17;13.13;;;8.60;99.90;;;;;;5056618;28;20925;-67
2023/04/07 09:20:58;;;;;;;16.50;11.70;;;8.60;99.90;;;;;;5057336;28;20466;-67
2023/04/07 09:23:30;;;;;;;14.40;10.87;;;8.70;99.90;;;;;;5058108;28;20717;-67
2023/04/07 09:26:02;;;;;;;14.63;11.13;;;8.70;99.90;;;;;;5057366;28;20821;-66
2023/04/07 09:28:42;;;;;;;14.80;10.80;;;8.70;99.90;;;;;;5058015;28;20494;-67
2023/04/07 09:31:09;;;;;;;14.37;11.03;;;8.80;99.90;;;;;;5057573;28;20462;-67
2023/04/07 09:33:36;;;;;;;17.00;9.73;;;8.80;99.90;;;;;;5058045;28;20549;-67
2023/04/07 09:36:05;;;;;;;13.77;9.67;;;8.70;99.90;;;;;;5058283;28;20466;-67
2023/04/07 09:38:36;;;;;;;13.03;9.30;;;8.60;99.90;;;;;;5058525;28;20565;-68
2023/04/07 09:41:10;;;;;;;10.47;7.60;;;8.70;99.90;;;;;;5057780;28;20467;-68
2023/04/07 09:43:38;;;;;;;11.80;9.40;;;8.60;99.90;;;;;;5058189;28;20466;-67
2023/04/07 09:46:11;;;;;;;14.10;9.77;;;8.60;99.90;;;;;;5057860;28;20471;-68
2023/04/07 09:48:39;;;;;;;16.57;8.37;;;8.70;99.90;;;;;;5058019;28;21001;-68
2023/04/07 09:51:08;;;;;;;9.33;7.40;;;8.90;99.90;;;;;;5057917;28;20477;-68
2023/04/07 09:53:47;;;;;;;11.67;8.40;;;8.90;99.90;;;;;;5056762;28;20484;-68
2023/04/07 09:56:17;;;;;;;11.07;8.43;;;8.80;99.90;;;;;;5058379;28;20462;-68
2023/04/07 09:58:46;;;;;;;9.60;7.23;;;8.90;99.90;;;;;;5058292;28;20465;-68
2023/04/07 10:01:15;;;;;;;9.70;7.10;;;8.70;99.90;;;;;;5057994;28;20466;-66
2023/04/07 10:03:42;;;;;;;13.00;6.93;;;8.90;99.90;;;;;;5057763;28;20900;-67
2023/04/07 10:06:10;;;;;;;8.53;7.63;;;8.80;99.90;;;;;;5057887;28;20473;-68
2023/04/07 10:08:41;;;;;;;12.03;8.70;;;8.90;99.90;;;;;;5058132;28;20931;-68
2023/04/07 10:11:10;;;;;;;11.23;8.80;;;8.70;99.90;;;;;;5055734;28;20485;-68
2023/04/07 10:13:40;;;;;;;13.20;7.27;;;8.80;99.90;;;;;;5057537;28;20509;-68
2023/04/07 10:16:08;;;;;;;11.33;8.60;;;9.00;99.90;;;;;;5057917;28;20474;-68
2023/04/07 10:18:37;;;;;;;15.80;9.27;;;9.00;99.90;;;;;;5057889;28;20458;-68
2023/04/07 10:21:06;;;;;;;13.13;9.40;;;9.20;99.90;;;;;;5057755;28;20463;-68
2023/04/07 10:23:50;;;;;;;10.83;8.60;;;9.10;99.90;;;;;;5057610;28;20553;-67
2023/04/07 10:26:22;;;;;;;12.37;9.30;;;9.20;99.90;;;;;;5056539;28;20465;-68
2023/04/07 10:28:55;;;;;;;11.03;8.77;;;9.20;99.90;;;;;;5057101;28;20485;-68
2023/04/07 10:31:24;;;;;;;11.07;8.50;;;9.30;99.90;;;;;;5056677;28;20926;-68
2023/04/07 10:33:53;;;;;;;13.07;9.27;;;9.20;99.90;;;;;;5045042;28;20467;-67
2023/04/07 10:36:21;;;;;;;15.60;10.67;;;9.00;99.90;;;;;;5055601;28;20520;-67
2023/04/07 10:39:22;;;;;;;13.63;9.93;;;9.00;99.90;;;;;;5056748;28;20580;-67
2023/04/07 10:41:50;;;;;;;12.93;9.77;;;9.20;99.90;;;;;;5051535;28;20477;-67
2023/04/07 10:44:48;;;;;;;8.90;7.10;;;9.10;99.90;;;;;;5055780;28;20913;-68
2023/04/07 10:47:16;;;;;;;9.53;6.90;;;9.40;99.90;;;;;;5057347;28;20557;-66
2023/04/07 10:50:17;;;;;;;8.40;7.10;;;9.40;99.90;;;;;;5056981;28;20981;-66
2023/04/07 10:52:45;;;;;;;8.77;6.10;;;9.50;99.90;;;;;;5037273;28;20463;-66
2023/04/07 10:55:32;;;;;;;8.00;6.20;;;9.60;99.90;;;;;;5037546;28;20459;-66
2023/04/07 10:58:22;;;;;;;8.07;6.67;;;9.30;99.90;;;;;;5036768;28;20899;-67
2023/04/07 11:01:22;;;;;;;8.10;6.27;;;9.40;99.90;;;;;;5037435;28;20450;-66
2023/04/07 11:03:59;;;;;;;8.07;6.57;;;9.60;99.90;;;;;;5049300;28;20462;-66
2023/04/07 11:06:27;;;;;;;7.37;6.57;;;9.80;99.90;;;;;;5050408;28;20465;-66
2023/04/07 11:08:54;;;;;;;6.53;5.80;;;9.80;99.90;;;;;;5055834;28;20571;-67
2023/04/07 11:11:40;;;;;;;6.73;5.63;;;9.80;99.90;;;;;;5053814;28;20569;-67
2023/04/07 11:14:08;;;;;;;6.10;5.50;;;9.80;99.90;;;;;;5051176;28;20866;-66
2023/04/07 11:16:39;;;;;;;7.90;5.50;;;9.70;99.90;;;;;;5054959;28;20459;-66
2023/04/07 11:19:06;;;;;;;7.27;6.40;;;9.70;99.90;;;;;;5053913;28;20458;-66
2023/04/07 11:21:33;;;;;;;7.53;6.70;;;9.80;99.90;;;;;;5056289;28;20454;-66
2023/04/07 11:24:01;;;;;;;8.10;6.60;;;9.90;99.90;;;;;;5053115;28;20965;-65
2023/04/07 11:26:29;;;;;;;8.50;7.30;;;10.00;99.90;;;;;;5056621;28;20458;-66
2023/04/07 11:28:58;;;;;;;8.23;7.10;;;10.00;99.90;;;;;;5056635;28;20502;-66
2023/04/07 11:31:25;;;;;;;8.70;7.43;;;10.00;99.90;;;;;;5056040;28;20458;-65
2023/04/07 11:33:55;;;;;;;8.97;7.63;;;9.90;99.90;;;;;;5055947;28;20458;-66
2023/04/07 11:36:31;;;;;;;9.17;7.63;;;9.70;99.90;;;;;;5049731;28;20462;-67
2023/04/07 11:38:58;;;;;;;9.27;7.60;;;9.40;99.90;;;;;;5056433;28;20486;-68
2023/04/07 11:41:27;;;;;;;8.97;7.60;;;9.30;99.90;;;;;;5056405;28;20466;-67
2023/04/07 11:44:05;;;;;;;9.50;7.87;;;9.40;99.90;;;;;;5056976;28;20462;-67
2023/04/07 11:46:32;;;;;;;9.40;7.93;;;9.50;99.90;;;;;;5056662;28;20473;-67
2023/04/07 11:49:11;;;;;;;9.23;8.23;;;9.50;99.90;;;;;;5056571;28;20494;-67
2023/04/07 11:51:38;;;;;;;11.00;9.30;;;9.80;99.90;;;;;;5056265;28;20473;-66
2023/04/07 11:54:06;;;;;;;12.03;9.67;;;9.80;99.90;;;;;;5055116;28;20903;-66
2023/04/07 11:56:43;;;;;;;12.63;10.83;;;9.90;99.90;;;;;;5054799;28;20446;-67
2023/04/07 11:59:22;;;;;;;17.63;11.50;;;10.00;99.90;;;;;;5054776;28;20948;-67
2023/04/07 12:01:51;;;;;;;12.07;10.80;;;10.10;99.90;;;;;;5053904;28;20896;-66
2023/04/07 12:04:20;;;;;;;13.47;11.00;;;10.10;99.90;;;;;;5052528;28;20572;-67
2023/04/07 12:06:49;;;;;;;13.00;10.57;;;10.00;99.90;;;;;;5054573;28;20465;-67
2023/04/07 12:09:31;;;;;;;15.40;12.57;;;10.00;99.90;;;;;;5054746;28;20961;-66
2023/04/07 12:12:00;;;;;;;15.20;12.67;;;9.90;99.90;;;;;;5053571;28;20476;-65
2023/04/07 12:14:28;;;;;;;17.13;13.67;;;9.90;99.90;;;;;;5055363;28;20461;-66
2023/04/07 12:16:56;;;;;;;17.60;15.23;;;9.80;99.90;;;;;;5057893;28;20464;-66
2023/04/07 12:19:27;;;;;;;18.60;14.77;;;9.80;99.90;;;;;;5058843;28;20934;-68
2023/04/07 12:21:55;;;;;;;18.23;15.10;;;10.20;99.90;;;;;;5048323;28;20467;-67
2023/04/07 12:24:22;;;;;;;17.40;13.77;;;9.90;99.90;;;;;;5055802;28;20872;-67
2023/04/07 12:26:49;;;;;;;17.23;14.50;;;10.10;99.90;;;;;;5054982;28;20560;-67
2023/04/07 12:29:18;;;;;;;14.70;12.97;;;10.20;99.90;;;;;;5058159;28;20485;-68
2023/04/07 12:31:45;;;;;;;15.40;12.50;;;10.20;99.90;;;;;;5057316;28;20907;-67
2023/04/07 12:34:13;;;;;;;17.53;15.63;;;10.20;99.90;;;;;;5057301;28;20455;-66
2023/04/07 12:36:42;;;;;;;13.80;12.20;;;10.00;99.90;;;;;;5058371;28;20494;-66
2023/04/07 12:39:09;;;;;;;18.97;15.07;;;9.90;99.90;;;;;;5058168;28;20902;-66
2023/04/07 12:41:37;;;;;;;19.03;15.23;;;9.80;99.90;;;;;;5057769;28;20546;-66
2023/04/07 12:44:04;;;;;;;21.37;15.37;;;9.60;99.90;;;;;;5057865;28;20466;-66
2023/04/07 12:46:31;;;;;;;17.53;14.70;;;9.80;99.90;;;;;;5058179;28;20470;-66
2023/04/07 12:48:59;;;;;;;18.70;15.30;;;9.70;99.90;;;;;;5055617;28;20504;-67
2023/04/07 12:51:27;;;;;;;18.40;15.20;;;9.80;99.90;;;;;;5058643;28;20458;-67